sensor_id;sensor_type;location;lat;lon;timestamp;temperature;humidity
420;DHT22;42600;54.408;13.016;2023-06-04T00:00:38;11.90;71.70
420;DHT22;42600;54.408;13.016;2023-06-04T00:03:05;12.00;71.40
420;DHT22;42600;54.408;13.016;2023-06-04T00:05:32;11.90;72.10
420;DHT22;42600;54.408;13.016;2023-06-04T00:08:00;11.70;72.10
420;DHT22;42600;54.408;13.016;2023-06-04T00:10:27;11.70;72.20
420;DHT22;42600;54.408;13.016;2023-06-04T00:12:53;11.60;72.40
420;DHT22;42600;54.408;13.016;2023-06-04T00:15:20;11.50;72.60
420;DHT22;42600;54.408;13.016;2023-06-04T00:17:47;11.50;72.40
420;DHT22;42600;54.408;13.016;2023-06-04T00:20:15;11.50;72.00
420;DHT22;42600;54.408;13.016;2023-06-04T00:22:42;11.70;71.60
420;DHT22;42600;54.408;13.016;2023-06-04T00:25:10;11.80;71.10
420;DHT22;42600;54.408;13.016;2023-06-04T00:27:37;11.90;70.50
420;DHT22;42600;54.408;13.016;2023-06-04T00:30:05;11.90;70.60
420;DHT22;42600;54.408;13.016;2023-06-04T00:32:32;11.70;71.80
420;DHT22;42600;54.408;13.016;2023-06-04T00:35:00;11.60;71.70
420;DHT22;42600;54.408;13.016;2023-06-04T00:37:28;11.80;71.10
420;DHT22;42600;54.408;13.016;2023-06-04T00:39:55;11.70;71.40
420;DHT22;42600;54.408;13.016;2023-06-04T00:42:24;11.60;71.80
420;DHT22;42600;54.408;13.016;2023-06-04T00:44:51;11.70;70.80
420;DHT22;42600;54.408;13.016;2023-06-04T00:47:19;11.70;71.10
420;DHT22;42600;54.408;13.016;2023-06-04T00:49:46;11.60;71.60
420;DHT22;42600;54.408;13.016;2023-06-04T00:52:14;11.70;70.60
420;DHT22;42600;54.408;13.016;2023-06-04T00:54:42;11.60;71.30
420;DHT22;42600;54.408;13.016;2023-06-04T00:57:09;11.60;71.40
420;DHT22;42600;54.408;13.016;2023-06-04T00:59:39;11.50;71.70
420;DHT22;42600;54.408;13.016;2023-06-04T01:02:11;11.60;70.90
420;DHT22;42600;54.408;13.016;2023-06-04T01:04:44;11.60;71.20
420;DHT22;42600;54.408;13.016;2023-06-04T01:07:14;11.60;71.30
420;DHT22;42600;54.408;13.016;2023-06-04T01:09:41;11.70;71.10
420;DHT22;42600;54.408;13.016;2023-06-04T01:12:09;11.60;70.90
420;DHT22;42600;54.408;13.016;2023-06-04T01:14:37;11.70;71.20
420;DHT22;42600;54.408;13.016;2023-06-04T01:17:09;11.50;72.30
420;DHT22;42600;54.408;13.016;2023-06-04T01:19:56;11.40;72.30
420;DHT22;42600;54.408;13.016;2023-06-04T01:22:32;11.40;71.90
420;DHT22;42600;54.408;13.016;2023-06-04T01:25:03;11.60;71.10
420;DHT22;42600;54.408;13.016;2023-06-04T01:27:31;11.50;71.70
420;DHT22;42600;54.408;13.016;2023-06-04T01:30:02;11.60;71.70
420;DHT22;42600;54.408;13.016;2023-06-04T01:32:30;11.50;71.90
420;DHT22;42600;54.408;13.016;2023-06-04T01:34:57;11.50;71.70
420;DHT22;42600;54.408;13.016;2023-06-04T01:37:25;11.60;70.70
420;DHT22;42600;54.408;13.016;2023-06-04T01:39:52;11.60;71.20
420;DHT22;42600;54.408;13.016;2023-06-04T01:42:19;11.60;71.90
420;DHT22;42600;54.408;13.016;2023-06-04T01:44:46;11.60;71.10
420;DHT22;42600;54.408;13.016;2023-06-04T01:47:15;11.50;71.50
420;DHT22;42600;54.408;13.016;2023-06-04T01:49:41;11.70;70.50
420;DHT22;42600;54.408;13.016;2023-06-04T01:52:08;11.50;71.30
420;DHT22;42600;54.408;13.016;2023-06-04T01:54:36;11.50;71.40
420;DHT22;42600;54.408;13.016;2023-06-04T01:57:04;11.50;71.60
420;DHT22;42600;54.408;13.016;2023-06-04T01:59:31;11.40;72.10
420;DHT22;42600;54.408;13.016;2023-06-04T02:01:58;11.40;71.30
420;DHT22;42600;54.408;13.016;2023-06-04T02:04:28;11.40;71.40
420;DHT22;42600;54.408;13.016;2023-06-04T02:06:55;11.30;72.60
420;DHT22;42600;54.408;13.016;2023-06-04T02:09:24;11.20;72.20
420;DHT22;42600;54.408;13.016;2023-06-04T02:11:51;11.30;71.30
420;DHT22;42600;54.408;13.016;2023-06-04T02:14:18;11.30;71.50
420;DHT22;42600;54.408;13.016;2023-06-04T02:16:44;11.30;71.70
420;DHT22;42600;54.408;13.016;2023-06-04T02:19:15;11.20;71.70
420;DHT22;42600;54.408;13.016;2023-06-04T02:21:45;11.20;71.80
420;DHT22;42600;54.408;13.016;2023-06-04T02:24:11;11.20;72.20
420;DHT22;42600;54.408;13.016;2023-06-04T02:26:38;11.10;72.10
420;DHT22;42600;54.408;13.016;2023-06-04T02:29:05;11.00;72.30
420;DHT22;42600;54.408;13.016;2023-06-04T02:31:31;11.00;72.70
420;DHT22;42600;54.408;13.016;2023-06-04T02:33:58;10.90;72.00
420;DHT22;42600;54.408;13.016;2023-06-04T02:36:25;11.10;71.30
420;DHT22;42600;54.408;13.016;2023-06-04T02:38:53;11.10;71.40
420;DHT22;42600;54.408;13.016;2023-06-04T02:41:21;11.10;71.30
420;DHT22;42600;54.408;13.016;2023-06-04T02:43:48;11.00;72.00
420;DHT22;42600;54.408;13.016;2023-06-04T02:46:15;10.90;72.60
420;DHT22;42600;54.408;13.016;2023-06-04T02:48:41;10.80;72.60
420;DHT22;42600;54.408;13.016;2023-06-04T02:51:08;10.70;73.60
420;DHT22;42600;54.408;13.016;2023-06-04T02:53:37;10.50;73.40
420;DHT22;42600;54.408;13.016;2023-06-04T02:56:06;10.50;73.60
420;DHT22;42600;54.408;13.016;2023-06-04T02:58:32;10.50;73.20
420;DHT22;42600;54.408;13.016;2023-06-04T03:01:05;10.60;72.50
420;DHT22;42600;54.408;13.016;2023-06-04T03:03:32;10.60;72.90
420;DHT22;42600;54.408;13.016;2023-06-04T03:05:58;10.60;72.90
420;DHT22;42600;54.408;13.016;2023-06-04T03:08:27;10.60;73.20
420;DHT22;42600;54.408;13.016;2023-06-04T03:10:53;10.70;73.20
420;DHT22;42600;54.408;13.016;2023-06-04T03:13:21;10.70;72.30
420;DHT22;42600;54.408;13.016;2023-06-04T03:15:48;10.70;72.20
420;DHT22;42600;54.408;13.016;2023-06-04T03:18:14;10.80;71.90
420;DHT22;42600;54.408;13.016;2023-06-04T03:20:41;10.70;73.00
420;DHT22;42600;54.408;13.016;2023-06-04T03:23:07;10.70;72.90
420;DHT22;42600;54.408;13.016;2023-06-04T03:25:34;10.70;72.40
420;DHT22;42600;54.408;13.016;2023-06-04T03:28:01;10.80;72.90
420;DHT22;42600;54.408;13.016;2023-06-04T03:30:28;10.70;73.10
420;DHT22;42600;54.408;13.016;2023-06-04T03:32:55;10.70;73.20
420;DHT22;42600;54.408;13.016;2023-06-04T03:35:22;10.70;73.00
420;DHT22;42600;54.408;13.016;2023-06-04T03:37:48;10.80;72.50
420;DHT22;42600;54.408;13.016;2023-06-04T03:40:15;10.80;72.40
420;DHT22;42600;54.408;13.016;2023-06-04T03:42:42;10.80;72.90
420;DHT22;42600;54.408;13.016;2023-06-04T03:45:09;10.80;73.00
420;DHT22;42600;54.408;13.016;2023-06-04T03:47:38;10.80;73.40
420;DHT22;42600;54.408;13.016;2023-06-04T03:50:06;10.80;72.80
420;DHT22;42600;54.408;13.016;2023-06-04T03:52:32;10.90;73.10
420;DHT22;42600;54.408;13.016;2023-06-04T03:54:59;10.90;73.10
420;DHT22;42600;54.408;13.016;2023-06-04T03:57:26;11.00;73.40
420;DHT22;42600;54.408;13.016;2023-06-04T03:59:53;11.10;72.80
420;DHT22;42600;54.408;13.016;2023-06-04T04:02:20;11.00;74.60
420;DHT22;42600;54.408;13.016;2023-06-04T04:04:48;11.10;74.10
420;DHT22;42600;54.408;13.016;2023-06-04T04:07:15;11.20;73.60
420;DHT22;42600;54.408;13.016;2023-06-04T04:09:42;11.30;73.60
420;DHT22;42600;54.408;13.016;2023-06-04T04:12:10;11.40;72.20
420;DHT22;42600;54.408;13.016;2023-06-04T04:14:37;11.50;72.10
420;DHT22;42600;54.408;13.016;2023-06-04T04:17:04;11.50;75.50
420;DHT22;42600;54.408;13.016;2023-06-04T04:19:32;11.60;73.60
420;DHT22;42600;54.408;13.016;2023-06-04T04:22:02;11.60;75.30
420;DHT22;42600;54.408;13.016;2023-06-04T04:24:31;11.70;75.30
420;DHT22;42600;54.408;13.016;2023-06-04T04:26:59;11.80;74.60
420;DHT22;42600;54.408;13.016;2023-06-04T04:29:29;11.90;74.70
420;DHT22;42600;54.408;13.016;2023-06-04T04:31:58;11.90;74.60
420;DHT22;42600;54.408;13.016;2023-06-04T04:34:26;12.00;75.20
420;DHT22;42600;54.408;13.016;2023-06-04T04:36:54;12.10;75.20
420;DHT22;42600;54.408;13.016;2023-06-04T04:39:24;12.20;73.10
420;DHT22;42600;54.408;13.016;2023-06-04T04:41:51;12.30;72.90
420;DHT22;42600;54.408;13.016;2023-06-04T04:44:17;12.50;73.30
420;DHT22;42600;54.408;13.016;2023-06-04T04:46:44;12.60;71.70
420;DHT22;42600;54.408;13.016;2023-06-04T04:49:10;12.70;70.70
420;DHT22;42600;54.408;13.016;2023-06-04T04:51:37;12.90;71.00
420;DHT22;42600;54.408;13.016;2023-06-04T04:54:03;12.90;69.50
420;DHT22;42600;54.408;13.016;2023-06-04T04:56:33;13.00;69.10
420;DHT22;42600;54.408;13.016;2023-06-04T04:59:00;13.10;69.50
420;DHT22;42600;54.408;13.016;2023-06-04T05:01:27;13.20;69.20
420;DHT22;42600;54.408;13.016;2023-06-04T05:03:53;13.30;68.80
420;DHT22;42600;54.408;13.016;2023-06-04T05:06:20;13.40;68.80
420;DHT22;42600;54.408;13.016;2023-06-04T05:08:48;13.40;68.90
420;DHT22;42600;54.408;13.016;2023-06-04T05:11:14;13.50;69.00
420;DHT22;42600;54.408;13.016;2023-06-04T05:16:10;13.60;68.40
420;DHT22;42600;54.408;13.016;2023-06-04T05:18:38;13.70;69.20
420;DHT22;42600;54.408;13.016;2023-06-04T05:21:07;13.80;69.10
420;DHT22;42600;54.408;13.016;2023-06-04T05:23:33;13.90;68.20
420;DHT22;42600;54.408;13.016;2023-06-04T05:26:02;13.90;68.50
420;DHT22;42600;54.408;13.016;2023-06-04T05:28:29;14.00;68.50
420;DHT22;42600;54.408;13.016;2023-06-04T05:30:58;14.00;68.80
420;DHT22;42600;54.408;13.016;2023-06-04T05:33:26;14.10;69.20
420;DHT22;42600;54.408;13.016;2023-06-04T05:35:53;14.20;69.20
420;DHT22;42600;54.408;13.016;2023-06-04T05:38:23;14.30;69.00
420;DHT22;42600;54.408;13.016;2023-06-04T05:40:51;14.40;69.10
420;DHT22;42600;54.408;13.016;2023-06-04T05:43:18;14.50;69.90
420;DHT22;42600;54.408;13.016;2023-06-04T05:45:45;14.60;69.20
420;DHT22;42600;54.408;13.016;2023-06-04T05:48:12;14.70;69.30
420;DHT22;42600;54.408;13.016;2023-06-04T05:50:40;14.80;69.70
420;DHT22;42600;54.408;13.016;2023-06-04T05:53:06;14.90;70.20
420;DHT22;42600;54.408;13.016;2023-06-04T05:55:33;15.00;69.50
420;DHT22;42600;54.408;13.016;2023-06-04T05:58:00;15.10;70.50
420;DHT22;42600;54.408;13.016;2023-06-04T06:00:26;15.20;69.60
420;DHT22;42600;54.408;13.016;2023-06-04T06:02:53;15.30;69.60
420;DHT22;42600;54.408;13.016;2023-06-04T06:05:20;15.40;69.10
420;DHT22;42600;54.408;13.016;2023-06-04T06:07:48;15.50;69.10
420;DHT22;42600;54.408;13.016;2023-06-04T06:10:14;15.60;69.00
420;DHT22;42600;54.408;13.016;2023-06-04T06:12:41;15.70;68.90
420;DHT22;42600;54.408;13.016;2023-06-04T06:15:09;15.80;68.70
420;DHT22;42600;54.408;13.016;2023-06-04T06:17:37;15.90;69.30
420;DHT22;42600;54.408;13.016;2023-06-04T06:20:05;16.00;68.90
420;DHT22;42600;54.408;13.016;2023-06-04T06:22:32;16.10;69.10
420;DHT22;42600;54.408;13.016;2023-06-04T06:25:01;16.10;69.40
420;DHT22;42600;54.408;13.016;2023-06-04T06:27:28;16.10;69.20
420;DHT22;42600;54.408;13.016;2023-06-04T06:29:55;16.40;69.80
420;DHT22;42600;54.408;13.016;2023-06-04T06:32:22;16.50;69.10
420;DHT22;42600;54.408;13.016;2023-06-04T06:34:48;16.60;69.60
420;DHT22;42600;54.408;13.016;2023-06-04T06:37:15;16.70;68.70
420;DHT22;42600;54.408;13.016;2023-06-04T06:39:41;16.80;68.80
420;DHT22;42600;54.408;13.016;2023-06-04T06:42:09;16.90;69.00
420;DHT22;42600;54.408;13.016;2023-06-04T06:44:36;17.00;68.30
420;DHT22;42600;54.408;13.016;2023-06-04T06:47:03;17.10;68.30
420;DHT22;42600;54.408;13.016;2023-06-04T06:49:29;17.20;68.60
420;DHT22;42600;54.408;13.016;2023-06-04T06:51:56;17.30;68.70
420;DHT22;42600;54.408;13.016;2023-06-04T06:54:23;17.50;68.90
420;DHT22;42600;54.408;13.016;2023-06-04T06:56:49;17.40;68.70
420;DHT22;42600;54.408;13.016;2023-06-04T06:59:17;17.50;68.70
420;DHT22;42600;54.408;13.016;2023-06-04T07:01:44;17.60;69.40
420;DHT22;42600;54.408;13.016;2023-06-04T07:04:10;17.70;69.30
420;DHT22;42600;54.408;13.016;2023-06-04T07:06:37;17.90;69.70
420;DHT22;42600;54.408;13.016;2023-06-04T07:09:04;18.00;68.90
420;DHT22;42600;54.408;13.016;2023-06-04T07:11:31;18.10;68.90
420;DHT22;42600;54.408;13.016;2023-06-04T07:13:57;18.40;68.90
420;DHT22;42600;54.408;13.016;2023-06-04T07:16:25;18.60;68.10
420;DHT22;42600;54.408;13.016;2023-06-04T07:18:52;18.70;68.00
420;DHT22;42600;54.408;13.016;2023-06-04T07:21:18;18.80;68.40
420;DHT22;42600;54.408;13.016;2023-06-04T07:23:47;18.80;66.70
420;DHT22;42600;54.408;13.016;2023-06-04T07:26:16;18.90;68.70
420;DHT22;42600;54.408;13.016;2023-06-04T07:28:43;19.00;67.10
420;DHT22;42600;54.408;13.016;2023-06-04T07:31:09;18.90;68.30
420;DHT22;42600;54.408;13.016;2023-06-04T07:33:37;19.00;68.00
420;DHT22;42600;54.408;13.016;2023-06-04T07:36:09;19.30;69.00
420;DHT22;42600;54.408;13.016;2023-06-04T07:38:35;19.50;68.60
420;DHT22;42600;54.408;13.016;2023-06-04T07:41:02;19.50;67.50
420;DHT22;42600;54.408;13.016;2023-06-04T07:43:28;19.50;68.10
420;DHT22;42600;54.408;13.016;2023-06-04T07:45:55;19.60;67.70
420;DHT22;42600;54.408;13.016;2023-06-04T07:48:21;19.70;68.50
420;DHT22;42600;54.408;13.016;2023-06-04T07:50:57;19.80;67.80
420;DHT22;42600;54.408;13.016;2023-06-04T07:53:23;19.90;68.10
420;DHT22;42600;54.408;13.016;2023-06-04T07:55:50;20.00;68.10
420;DHT22;42600;54.408;13.016;2023-06-04T07:58:17;20.00;69.10
420;DHT22;42600;54.408;13.016;2023-06-04T08:00:43;20.10;70.20
420;DHT22;42600;54.408;13.016;2023-06-04T08:03:10;20.20;69.50
420;DHT22;42600;54.408;13.016;2023-06-04T08:05:37;20.20;69.70
420;DHT22;42600;54.408;13.016;2023-06-04T08:08:05;20.30;70.90
420;DHT22;42600;54.408;13.016;2023-06-04T08:10:32;20.30;68.70
420;DHT22;42600;54.408;13.016;2023-06-04T08:12:58;20.50;69.00
420;DHT22;42600;54.408;13.016;2023-06-04T08:15:25;20.40;71.10
420;DHT22;42600;54.408;13.016;2023-06-04T08:17:51;20.40;71.50
420;DHT22;42600;54.408;13.016;2023-06-04T08:20:18;20.40;71.20
420;DHT22;42600;54.408;13.016;2023-06-04T08:22:45;20.20;71.50
420;DHT22;42600;54.408;13.016;2023-06-04T08:25:13;20.50;70.30
420;DHT22;42600;54.408;13.016;2023-06-04T08:27:40;20.70;70.30
420;DHT22;42600;54.408;13.016;2023-06-04T08:30:08;20.40;70.80
420;DHT22;42600;54.408;13.016;2023-06-04T08:32:35;20.70;70.40
420;DHT22;42600;54.408;13.016;2023-06-04T08:35:01;20.50;69.90
420;DHT22;42600;54.408;13.016;2023-06-04T08:37:28;20.70;69.60
420;DHT22;42600;54.408;13.016;2023-06-04T08:39:55;20.70;69.60
420;DHT22;42600;54.408;13.016;2023-06-04T08:42:27;20.80;68.80
420;DHT22;42600;54.408;13.016;2023-06-04T08:44:57;20.60;67.70
420;DHT22;42600;54.408;13.016;2023-06-04T08:47:24;20.70;68.00
420;DHT22;42600;54.408;13.016;2023-06-04T08:49:52;20.90;67.10
420;DHT22;42600;54.408;13.016;2023-06-04T08:52:18;20.70;65.70
420;DHT22;42600;54.408;13.016;2023-06-04T08:54:48;20.50;65.90
420;DHT22;42600;54.408;13.016;2023-06-04T08:57:17;20.60;65.70
420;DHT22;42600;54.408;13.016;2023-06-04T08:59:45;20.70;66.80
420;DHT22;42600;54.408;13.016;2023-06-04T09:02:12;20.80;65.40
420;DHT22;42600;54.408;13.016;2023-06-04T09:04:39;20.90;65.00
420;DHT22;42600;54.408;13.016;2023-06-04T09:07:06;20.70;64.50
420;DHT22;42600;54.408;13.016;2023-06-04T09:09:38;20.60;64.80
420;DHT22;42600;54.408;13.016;2023-06-04T09:12:09;20.60;64.90
420;DHT22;42600;54.408;13.016;2023-06-04T09:14:36;20.80;65.30
420;DHT22;42600;54.408;13.016;2023-06-04T09:17:04;21.10;65.50
420;DHT22;42600;54.408;13.016;2023-06-04T09:19:31;20.80;62.40
420;DHT22;42600;54.408;13.016;2023-06-04T09:22:00;20.90;63.00
420;DHT22;42600;54.408;13.016;2023-06-04T09:24:39;20.70;64.30
420;DHT22;42600;54.408;13.016;2023-06-04T09:27:09;20.40;64.70
420;DHT22;42600;54.408;13.016;2023-06-04T09:29:37;21.00;65.20
420;DHT22;42600;54.408;13.016;2023-06-04T09:32:05;21.00;63.80
420;DHT22;42600;54.408;13.016;2023-06-04T09:34:32;20.50;64.20
420;DHT22;42600;54.408;13.016;2023-06-04T09:37:00;20.60;63.90
420;DHT22;42600;54.408;13.016;2023-06-04T09:39:26;20.60;64.30
420;DHT22;42600;54.408;13.016;2023-06-04T09:42:00;20.80;65.20
420;DHT22;42600;54.408;13.016;2023-06-04T09:44:28;20.70;64.40
420;DHT22;42600;54.408;13.016;2023-06-04T09:46:55;20.80;65.80
420;DHT22;42600;54.408;13.016;2023-06-04T09:49:24;20.80;65.10
420;DHT22;42600;54.408;13.016;2023-06-04T09:51:51;20.60;64.20
420;DHT22;42600;54.408;13.016;2023-06-04T09:54:18;20.70;64.20
420;DHT22;42600;54.408;13.016;2023-06-04T09:56:45;20.70;65.30
420;DHT22;42600;54.408;13.016;2023-06-04T09:59:13;20.80;64.90
420;DHT22;42600;54.408;13.016;2023-06-04T10:01:40;20.80;64.70
420;DHT22;42600;54.408;13.016;2023-06-04T10:04:09;21.50;67.40
420;DHT22;42600;54.408;13.016;2023-06-04T10:06:39;21.60;64.80
420;DHT22;42600;54.408;13.016;2023-06-04T10:09:08;21.20;63.90
420;DHT22;42600;54.408;13.016;2023-06-04T10:11:38;20.90;66.60
420;DHT22;42600;54.408;13.016;2023-06-04T10:14:11;21.20;66.40
420;DHT22;42600;54.408;13.016;2023-06-04T10:16:40;21.20;65.70
420;DHT22;42600;54.408;13.016;2023-06-04T10:19:07;21.10;64.90
420;DHT22;42600;54.408;13.016;2023-06-04T10:21:34;20.80;64.50
420;DHT22;42600;54.408;13.016;2023-06-04T10:24:03;20.80;65.00
420;DHT22;42600;54.408;13.016;2023-06-04T10:26:33;20.60;65.00
420;DHT22;42600;54.408;13.016;2023-06-04T10:29:00;20.40;65.40
420;DHT22;42600;54.408;13.016;2023-06-04T10:31:28;20.50;67.20
420;DHT22;42600;54.408;13.016;2023-06-04T10:33:55;20.60;64.90
420;DHT22;42600;54.408;13.016;2023-06-04T10:36:23;20.50;65.10
420;DHT22;42600;54.408;13.016;2023-06-04T10:38:52;21.20;65.70
420;DHT22;42600;54.408;13.016;2023-06-04T10:41:21;21.20;64.60
420;DHT22;42600;54.408;13.016;2023-06-04T10:43:49;21.00;65.90
420;DHT22;42600;54.408;13.016;2023-06-04T10:46:17;20.90;64.10
420;DHT22;42600;54.408;13.016;2023-06-04T10:48:48;20.50;65.20
420;DHT22;42600;54.408;13.016;2023-06-04T10:51:16;21.00;65.70
420;DHT22;42600;54.408;13.016;2023-06-04T10:53:44;20.80;66.10
420;DHT22;42600;54.408;13.016;2023-06-04T10:56:11;21.10;66.80
420;DHT22;42600;54.408;13.016;2023-06-04T10:58:43;21.50;62.30
420;DHT22;42600;54.408;13.016;2023-06-04T11:01:10;21.40;63.40
420;DHT22;42600;54.408;13.016;2023-06-04T11:03:39;21.30;64.60
420;DHT22;42600;54.408;13.016;2023-06-04T11:06:16;21.00;64.40
420;DHT22;42600;54.408;13.016;2023-06-04T11:08:44;21.20;64.10
420;DHT22;42600;54.408;13.016;2023-06-04T11:11:12;20.80;65.60
420;DHT22;42600;54.408;13.016;2023-06-04T11:13:41;20.90;65.30
420;DHT22;42600;54.408;13.016;2023-06-04T11:16:18;21.30;63.00
420;DHT22;42600;54.408;13.016;2023-06-04T11:18:54;21.30;64.40
420;DHT22;42600;54.408;13.016;2023-06-04T11:21:23;21.10;63.60
420;DHT22;42600;54.408;13.016;2023-06-04T11:23:58;21.30;63.30
420;DHT22;42600;54.408;13.016;2023-06-04T11:26:30;20.70;64.50
420;DHT22;42600;54.408;13.016;2023-06-04T11:28:59;20.80;65.00
420;DHT22;42600;54.408;13.016;2023-06-04T11:31:27;21.00;64.40
420;DHT22;42600;54.408;13.016;2023-06-04T11:33:54;20.70;64.40
420;DHT22;42600;54.408;13.016;2023-06-04T11:36:25;20.50;65.50
420;DHT22;42600;54.408;13.016;2023-06-04T11:38:56;20.50;66.90
420;DHT22;42600;54.408;13.016;2023-06-04T11:41:24;20.80;63.80
420;DHT22;42600;54.408;13.016;2023-06-04T11:43:51;21.00;63.10
420;DHT22;42600;54.408;13.016;2023-06-04T11:46:20;21.00;63.80
420;DHT22;42600;54.408;13.016;2023-06-04T11:48:47;20.80;65.50
420;DHT22;42600;54.408;13.016;2023-06-04T11:51:14;21.30;64.00
420;DHT22;42600;54.408;13.016;2023-06-04T11:53:42;21.00;64.70
420;DHT22;42600;54.408;13.016;2023-06-04T11:56:09;21.00;66.40
420;DHT22;42600;54.408;13.016;2023-06-04T11:58:37;20.80;63.90
420;DHT22;42600;54.408;13.016;2023-06-04T12:01:04;21.00;65.20
420;DHT22;42600;54.408;13.016;2023-06-04T12:03:37;20.70;64.90
420;DHT22;42600;54.408;13.016;2023-06-04T12:06:11;20.90;64.90
420;DHT22;42600;54.408;13.016;2023-06-04T12:08:46;21.00;64.60
420;DHT22;42600;54.408;13.016;2023-06-04T12:11:25;20.80;64.80
420;DHT22;42600;54.408;13.016;2023-06-04T12:13:54;21.20;64.90
420;DHT22;42600;54.408;13.016;2023-06-04T12:16:21;21.30;64.00
420;DHT22;42600;54.408;13.016;2023-06-04T12:18:50;21.00;62.00
420;DHT22;42600;54.408;13.016;2023-06-04T12:21:22;20.80;63.40
420;DHT22;42600;54.408;13.016;2023-06-04T12:23:54;21.30;63.10
420;DHT22;42600;54.408;13.016;2023-06-04T12:26:22;21.00;64.40
420;DHT22;42600;54.408;13.016;2023-06-04T12:29:00;20.80;64.40
420;DHT22;42600;54.408;13.016;2023-06-04T12:31:27;21.00;64.60
420;DHT22;42600;54.408;13.016;2023-06-04T12:33:59;21.20;64.20
420;DHT22;42600;54.408;13.016;2023-06-04T12:36:26;21.10;63.80
420;DHT22;42600;54.408;13.016;2023-06-04T12:38:59;20.80;64.70
420;DHT22;42600;54.408;13.016;2023-06-04T12:41:26;20.60;64.00
420;DHT22;42600;54.408;13.016;2023-06-04T12:43:54;20.40;64.60
420;DHT22;42600;54.408;13.016;2023-06-04T12:46:22;20.60;64.70
420;DHT22;42600;54.408;13.016;2023-06-04T12:48:50;20.90;63.90
420;DHT22;42600;54.408;13.016;2023-06-04T12:51:19;20.90;63.50
420;DHT22;42600;54.408;13.016;2023-06-04T12:53:47;20.80;63.50
420;DHT22;42600;54.408;13.016;2023-06-04T12:56:14;20.80;60.80
420;DHT22;42600;54.408;13.016;2023-06-04T12:58:41;20.80;60.60
420;DHT22;42600;54.408;13.016;2023-06-04T13:01:08;20.30;61.70
420;DHT22;42600;54.408;13.016;2023-06-04T13:03:37;20.50;61.20
420;DHT22;42600;54.408;13.016;2023-06-04T13:06:04;20.30;58.60
420;DHT22;42600;54.408;13.016;2023-06-04T13:08:33;20.30;60.00
420;DHT22;42600;54.408;13.016;2023-06-04T13:11:00;20.40;60.20
420;DHT22;42600;54.408;13.016;2023-06-04T13:13:28;20.70;61.90
420;DHT22;42600;54.408;13.016;2023-06-04T13:15:55;20.60;60.30
420;DHT22;42600;54.408;13.016;2023-06-04T13:18:22;20.40;61.70
420;DHT22;42600;54.408;13.016;2023-06-04T13:20:49;20.20;62.50
420;DHT22;42600;54.408;13.016;2023-06-04T13:23:16;20.10;63.00
420;DHT22;42600;54.408;13.016;2023-06-04T13:25:44;20.20;64.50
420;DHT22;42600;54.408;13.016;2023-06-04T13:28:11;21.00;64.30
420;DHT22;42600;54.408;13.016;2023-06-04T13:30:38;20.80;61.80
420;DHT22;42600;54.408;13.016;2023-06-04T13:33:04;20.70;61.10
420;DHT22;42600;54.408;13.016;2023-06-04T13:35:32;20.60;63.10
420;DHT22;42600;54.408;13.016;2023-06-04T13:37:59;20.70;62.60
420;DHT22;42600;54.408;13.016;2023-06-04T13:40:26;20.50;61.60
420;DHT22;42600;54.408;13.016;2023-06-04T13:42:54;20.20;63.20
420;DHT22;42600;54.408;13.016;2023-06-04T13:45:21;20.50;63.60
420;DHT22;42600;54.408;13.016;2023-06-04T13:47:49;20.50;64.00
420;DHT22;42600;54.408;13.016;2023-06-04T13:50:16;20.50;65.40
420;DHT22;42600;54.408;13.016;2023-06-04T13:52:44;20.50;65.50
420;DHT22;42600;54.408;13.016;2023-06-04T13:55:12;20.20;65.60
420;DHT22;42600;54.408;13.016;2023-06-04T13:57:39;20.30;65.90
420;DHT22;42600;54.408;13.016;2023-06-04T14:00:10;20.70;63.30
420;DHT22;42600;54.408;13.016;2023-06-04T14:02:38;20.50;66.10
420;DHT22;42600;54.408;13.016;2023-06-04T14:05:06;20.40;65.20
420;DHT22;42600;54.408;13.016;2023-06-04T14:07:33;20.30;64.30
420;DHT22;42600;54.408;13.016;2023-06-04T14:10:00;20.10;65.50
420;DHT22;42600;54.408;13.016;2023-06-04T14:12:28;19.90;64.80
420;DHT22;42600;54.408;13.016;2023-06-04T14:14:55;20.00;62.20
420;DHT22;42600;54.408;13.016;2023-06-04T14:17:24;19.80;62.10
420;DHT22;42600;54.408;13.016;2023-06-04T14:19:51;20.10;64.20
420;DHT22;42600;54.408;13.016;2023-06-04T14:22:18;20.00;64.20
420;DHT22;42600;54.408;13.016;2023-06-04T14:24:46;19.80;64.40
420;DHT22;42600;54.408;13.016;2023-06-04T14:27:13;20.30;63.70
420;DHT22;42600;54.408;13.016;2023-06-04T14:29:40;20.20;63.70
420;DHT22;42600;54.408;13.016;2023-06-04T14:32:07;19.80;62.00
420;DHT22;42600;54.408;13.016;2023-06-04T14:34:35;19.80;62.30
420;DHT22;42600;54.408;13.016;2023-06-04T14:37:02;19.50;64.10
420;DHT22;42600;54.408;13.016;2023-06-04T14:39:29;19.50;64.30
420;DHT22;42600;54.408;13.016;2023-06-04T14:41:56;19.60;62.70
420;DHT22;42600;54.408;13.016;2023-06-04T14:44:22;20.20;61.20
420;DHT22;42600;54.408;13.016;2023-06-04T14:46:50;20.20;62.20
420;DHT22;42600;54.408;13.016;2023-06-04T14:49:17;19.80;62.40
420;DHT22;42600;54.408;13.016;2023-06-04T14:51:46;19.60;62.20
420;DHT22;42600;54.408;13.016;2023-06-04T14:54:15;19.60;63.40
420;DHT22;42600;54.408;13.016;2023-06-04T14:56:43;20.10;64.40
420;DHT22;42600;54.408;13.016;2023-06-04T14:59:10;20.80;62.10
420;DHT22;42600;54.408;13.016;2023-06-04T15:01:38;20.50;62.10
420;DHT22;42600;54.408;13.016;2023-06-04T15:04:06;20.30;62.70
420;DHT22;42600;54.408;13.016;2023-06-04T15:06:33;20.20;62.40
420;DHT22;42600;54.408;13.016;2023-06-04T15:09:01;19.80;61.00
420;DHT22;42600;54.408;13.016;2023-06-04T15:11:29;19.80;62.20
420;DHT22;42600;54.408;13.016;2023-06-04T15:13:56;19.90;64.30
420;DHT22;42600;54.408;13.016;2023-06-04T15:16:23;19.80;63.40
420;DHT22;42600;54.408;13.016;2023-06-04T15:18:50;19.60;62.70
420;DHT22;42600;54.408;13.016;2023-06-04T15:21:17;19.50;63.00
420;DHT22;42600;54.408;13.016;2023-06-04T15:23:44;19.80;64.20
420;DHT22;42600;54.408;13.016;2023-06-04T15:26:15;19.50;64.90
420;DHT22;42600;54.408;13.016;2023-06-04T15:28:43;19.50;64.10
420;DHT22;42600;54.408;13.016;2023-06-04T15:31:10;19.50;64.80
420;DHT22;42600;54.408;13.016;2023-06-04T15:33:37;19.70;65.40
420;DHT22;42600;54.408;13.016;2023-06-04T15:36:05;19.80;63.70
420;DHT22;42600;54.408;13.016;2023-06-04T15:38:32;20.10;64.50
420;DHT22;42600;54.408;13.016;2023-06-04T15:40:59;19.80;65.80
420;DHT22;42600;54.408;13.016;2023-06-04T15:43:27;19.50;66.40
420;DHT22;42600;54.408;13.016;2023-06-04T15:45:54;19.80;65.40
420;DHT22;42600;54.408;13.016;2023-06-04T15:48:21;19.60;65.10
420;DHT22;42600;54.408;13.016;2023-06-04T15:50:48;19.50;65.30